Time;durP1;ratioP1;P1;durP2;ratioP2;P2;SDS_P1;SDS_P2;PMS_P1;PMS_P2;Temp;Humidity;BMP_temperature;BMP_pressure;BME280_temperature;BME280_humidity;BME280_pressure;Samples;Min_cycle;Max_cycle;Signal;HPM_P1;HPM_P2
2023/08/09 00:00:59;;;;;;;0.10;0.10;;;;;;;;;;5125858;27;20451;-55
2023/08/09 00:03:25;;;;;;;0.10;0.10;;;;;;;;;;5126206;28;20082;-53
2023/08/09 00:05:50;;;;;;;0.10;0.10;;;;;;;;;;5124709;28;20039;-53
2023/08/09 00:08:16;;;;;;;0.10;0.10;;;;;;;;;;5125603;28;20537;-50
2023/08/09 00:10:41;;;;;;;0.20;0.20;;;;;;;;;;5124898;28;20062;-55
2023/08/09 00:13:07;;;;;;;0.10;0.10;;;;;;;;;;5125442;28;20529;-53
2023/08/09 00:15:33;;;;;;;0.10;0.10;;;;;;;;;;5122809;27;20389;-52
2023/08/09 00:17:58;;;;;;;0.20;0.20;;;;;;;;;;5131930;27;20058;-53
2023/08/09 00:20:24;;;;;;;0.10;0.10;;;;;;;;;;5136771;27;20545;-53
2023/08/09 00:22:50;;;;;;;0.13;0.13;;;;;;;;;;5106238;28;20086;-53
2023/08/09 00:25:15;;;;;;;0.20;0.20;;;;;;;;;;5111177;28;20047;-52
2023/08/09 00:27:42;;;;;;;0.10;0.10;;;;;;;;;;5126060;28;20051;-54
2023/08/09 00:30:10;;;;;;;0.10;0.10;;;;;;;;;;5124974;27;20109;-51
2023/08/09 00:32:36;;;;;;;0.10;0.10;;;;;;;;;;5111219;28;20046;-53
2023/08/09 00:35:02;;;;;;;0.13;0.13;;;;;;;;;;5125354;28;20446;-54
2023/08/09 00:37:28;;;;;;;0.22;0.22;;;;;;;;;;5126150;28;20126;-51
2023/08/09 00:39:53;;;;;;;0.10;0.10;;;;;;;;;;5126334;28;20598;-52
2023/08/09 00:42:19;;;;;;;0.20;0.20;;;;;;;;;;5125264;28;20426;-50
2023/08/09 00:44:44;;;;;;;0.10;0.10;;;;;;;;;;5124771;28;20415;-51
2023/08/09 00:47:10;;;;;;;0.20;0.20;;;;;;;;;;5126317;28;20047;-53
2023/08/09 00:49:36;;;;;;;0.20;0.20;;;;;;;;;;5125724;28;20044;-55
2023/08/09 00:52:03;;;;;;;0.10;0.10;;;;;;;;;;5106662;28;20078;-55
2023/08/09 00:54:29;;;;;;;0.20;0.20;;;;;;;;;;5105739;28;20067;-54
2023/08/09 00:56:55;;;;;;;0.20;0.20;;;;;;;;;;5125544;27;20130;-54
2023/08/09 00:59:20;;;;;;;0.13;0.13;;;;;;;;;;5129687;28;20116;-53
2023/08/09 01:01:46;;;;;;;0.10;0.10;;;;;;;;;;5127544;27;20668;-53
2023/08/09 01:04:11;;;;;;;0.10;0.10;;;;;;;;;;5129506;28;20043;-49
2023/08/09 01:06:41;;;;;;;0.20;0.20;;;;;;;;;;5128043;28;20054;-51
2023/08/09 01:09:26;;;;;;;0.17;0.17;;;;;;;;;;5129683;28;20519;-54
2023/08/09 01:11:53;;;;;;;0.10;0.10;;;;;;;;;;5128556;28;20047;-52
2023/08/09 01:14:20;;;;;;;0.10;0.10;;;;;;;;;;5127876;27;20415;-50
2023/08/09 01:16:46;;;;;;;0.13;0.13;;;;;;;;;;5125495;27;20054;-50
2023/08/09 01:19:25;;;;;;;0.10;0.10;;;;;;;;;;5131584;27;20043;-54
2023/08/09 01:21:50;;;;;;;0.13;0.13;;;;;;;;;;5110313;28;20135;-52
2023/08/09 01:24:16;;;;;;;0.20;0.20;;;;;;;;;;5129212;28;20096;-54
2023/08/09 01:26:43;;;;;;;0.10;0.10;;;;;;;;;;5129629;28;20047;-55
2023/08/09 01:29:08;;;;;;;0.20;0.20;;;;;;;;;;5129254;28;20278;-52
2023/08/09 01:31:34;;;;;;;0.17;0.17;;;;;;;;;;5128435;28;20789;-52
2023/08/09 01:33:59;;;;;;;0.20;0.20;;;;;;;;;;5129165;28;20388;-55
2023/08/09 01:36:29;;;;;;;0.10;0.10;;;;;;;;;;5128750;28;20047;-52
2023/08/09 01:38:56;;;;;;;0.10;0.10;;;;;;;;;;5129763;28;20043;-52
2023/08/09 01:41:22;;;;;;;0.10;0.10;;;;;;;;;;5128408;28;20050;-51
2023/08/09 01:43:49;;;;;;;0.20;0.20;;;;;;;;;;5128054;28;20055;-54
2023/08/09 01:46:15;;;;;;;0.15;0.15;;;;;;;;;;5128783;28;20073;-54
2023/08/09 01:48:40;;;;;;;0.20;0.20;;;;;;;;;;5128946;28;20071;-55
2023/08/09 01:51:06;;;;;;;0.20;0.20;;;;;;;;;;5117618;28;20519;-54
2023/08/09 01:53:32;;;;;;;0.20;0.20;;;;;;;;;;5108562;28;20044;-54
2023/08/09 01:55:57;;;;;;;0.10;0.10;;;;;;;;;;5117616;28;20086;-53
2023/08/09 01:58:23;;;;;;;0.20;0.20;;;;;;;;;;5128570;28;20055;-50
2023/08/09 02:00:48;;;;;;;0.10;0.10;;;;;;;;;;5119577;28;20559;-54
2023/08/09 02:03:14;;;;;;;0.20;0.20;;;;;;;;;;5121743;28;20130;-50
2023/08/09 02:05:40;;;;;;;0.13;0.13;;;;;;;;;;5127416;28;20058;-48
2023/08/09 02:08:06;;;;;;;0.10;0.10;;;;;;;;;;5126916;27;20051;-49
2023/08/09 02:10:32;;;;;;;0.20;0.20;;;;;;;;;;5120933;28;20508;-47
2023/08/09 02:12:57;;;;;;;0.20;0.20;;;;;;;;;;5107456;28;20062;-49
2023/08/09 02:15:23;;;;;;;0.15;0.15;;;;;;;;;;5121367;27;20614;-47
2023/08/09 02:17:49;;;;;;;0.20;0.20;;;;;;;;;;5128329;28;20058;-48
2023/08/09 02:20:14;;;;;;;0.20;0.20;;;;;;;;;;5126246;28;20082;-48
2023/08/09 02:22:41;;;;;;;0.10;0.10;;;;;;;;;;5128877;27;20107;-49
2023/08/09 02:25:07;;;;;;;0.10;0.10;;;;;;;;;;5128131;27;20051;-48
2023/08/09 02:27:33;;;;;;;0.20;0.20;;;;;;;;;;5128496;28;20043;-48
2023/08/09 02:29:58;;;;;;;0.17;0.17;;;;;;;;;;5126548;28;20062;-48
2023/08/09 02:32:24;;;;;;;0.20;0.20;;;;;;;;;;5127865;28;20043;-47
2023/08/09 02:34:50;;;;;;;0.20;0.20;;;;;;;;;;5128071;28;20423;-47
2023/08/09 02:37:15;;;;;;;0.20;0.20;;;;;;;;;;5127264;27;20050;-48
2023/08/09 02:39:41;;;;;;;0.20;0.20;;;;;;;;;;5128000;28;20047;-48
2023/08/09 02:42:06;;;;;;;0.20;0.20;;;;;;;;;;5127470;28;20043;-48
2023/08/09 02:44:32;;;;;;;0.20;0.20;;;;;;;;;;5126693;28;20247;-47
2023/08/09 02:46:58;;;;;;;0.10;0.10;;;;;;;;;;5127430;27;20039;-49
2023/08/09 02:49:24;;;;;;;0.10;0.10;;;;;;;;;;5127525;28;20137;-48
2023/08/09 02:51:49;;;;;;;0.10;0.10;;;;;;;;;;5127461;28;20098;-54
2023/08/09 02:54:15;;;;;;;0.20;0.20;;;;;;;;;;5127602;28;20133;-54
2023/08/09 02:56:40;;;;;;;0.20;0.20;;;;;;;;;;5127193;28;20449;-54
2023/08/09 02:59:06;;;;;;;0.20;0.20;;;;;;;;;;5127429;28;20468;-55
2023/08/09 03:01:33;;;;;;;0.10;0.10;;;;;;;;;;5126946;28;20043;-53
2023/08/09 03:03:59;;;;;;;0.10;0.10;;;;;;;;;;5127120;28;20062;-54
2023/08/09 03:06:24;;;;;;;0.20;0.20;;;;;;;;;;5125143;28;20043;-52
2023/08/09 03:08:51;;;;;;;0.10;0.10;;;;;;;;;;5127636;28;20047;-54
2023/08/09 03:11:18;;;;;;;0.10;0.10;;;;;;;;;;5125541;28;20072;-54
2023/08/09 03:13:43;;;;;;;0.20;0.20;;;;;;;;;;5122482;27;20055;-51
2023/08/09 03:16:09;;;;;;;0.10;0.10;;;;;;;;;;5122974;27;20055;-53
2023/08/09 03:18:34;;;;;;;0.20;0.20;;;;;;;;;;5127598;28;20124;-54
2023/08/09 03:21:00;;;;;;;0.20;0.20;;;;;;;;;;5127379;27;20469;-53
2023/08/09 03:23:25;;;;;;;0.20;0.20;;;;;;;;;;5127007;28;20473;-54
2023/08/09 03:25:51;;;;;;;0.20;0.20;;;;;;;;;;5126379;28;20301;-51
2023/08/09 03:28:16;;;;;;;0.20;0.20;;;;;;;;;;5127346;28;20507;-53
2023/08/09 03:30:42;;;;;;;0.10;0.10;;;;;;;;;;5126858;28;20460;-54
2023/08/09 03:33:08;;;;;;;0.10;0.10;;;;;;;;;;5126875;28;20531;-52
2023/08/09 03:35:34;;;;;;;0.15;0.15;;;;;;;;;;5126188;27;20083;-51
2023/08/09 03:38:00;;;;;;;0.10;0.10;;;;;;;;;;5126887;28;20491;-53
2023/08/09 03:40:25;;;;;;;0.10;0.10;;;;;;;;;;5121660;27;20495;-51
2023/08/09 03:42:51;;;;;;;0.10;0.10;;;;;;;;;;5107164;28;20073;-52
2023/08/09 03:45:17;;;;;;;0.10;0.10;;;;;;;;;;5108383;28;20047;-52
2023/08/09 03:47:43;;;;;;;0.10;0.10;;;;;;;;;;5126295;28;20500;-54
2023/08/09 03:50:09;;;;;;;0.20;0.20;;;;;;;;;;5127286;27;20044;-54
2023/08/09 03:52:34;;;;;;;0.10;0.10;;;;;;;;;;5126967;28;20137;-55
2023/08/09 03:55:00;;;;;;;0.10;0.10;;;;;;;;;;5127472;28;20044;-55
2023/08/09 03:57:27;;;;;;;0.10;0.10;;;;;;;;;;5126761;28;20427;-53
2023/08/09 03:59:53;;;;;;;0.10;0.10;;;;;;;;;;5126982;28;20047;-55
2023/08/09 04:02:19;;;;;;;0.10;0.10;;;;;;;;;;5127379;28;20047;-54
2023/08/09 04:04:45;;;;;;;0.10;0.10;;;;;;;;;;5127066;28;20461;-52
2023/08/09 04:07:10;;;;;;;0.20;0.20;;;;;;;;;;5126199;28;20295;-54
2023/08/09 04:09:36;;;;;;;0.20;0.20;;;;;;;;;;5126965;28;20047;-52
2023/08/09 04:12:03;;;;;;;0.20;0.20;;;;;;;;;;5124927;28;20050;-54
2023/08/09 04:14:29;;;;;;;0.10;0.10;;;;;;;;;;5121021;27;20047;-54
2023/08/09 04:16:54;;;;;;;0.10;0.10;;;;;;;;;;5134808;27;20084;-53
2023/08/09 04:19:20;;;;;;;0.20;0.20;;;;;;;;;;5126661;28;20404;-54
2023/08/09 04:21:45;;;;;;;0.20;0.20;;;;;;;;;;5109895;28;20158;-54
2023/08/09 04:24:11;;;;;;;0.10;0.10;;;;;;;;;;5117059;28;20076;-54
2023/08/09 04:26:37;;;;;;;0.20;0.20;;;;;;;;;;5126808;28;20054;-55
2023/08/09 04:29:02;;;;;;;0.20;0.20;;;;;;;;;;5126896;28;20061;-54
2023/08/09 04:31:28;;;;;;;0.20;0.20;;;;;;;;;;5124801;27;20058;-53
2023/08/09 04:33:54;;;;;;;0.10;0.10;;;;;;;;;;5126344;28;20047;-53
2023/08/09 04:36:20;;;;;;;0.15;0.15;;;;;;;;;;5126026;28;20098;-51
2023/08/09 04:38:45;;;;;;;0.10;0.10;;;;;;;;;;5126116;28;20881;-51
2023/08/09 04:41:11;;;;;;;0.20;0.20;;;;;;;;;;5123805;28;20047;-49
2023/08/09 04:43:40;;;;;;;0.15;0.15;;;;;;;;;;5127285;27;20487;-50
2023/08/09 04:46:05;;;;;;;0.10;0.10;;;;;;;;;;5126011;27;20051;-52
2023/08/09 04:48:31;;;;;;;0.10;0.10;;;;;;;;;;5126058;28;20429;-51
2023/08/09 04:50:57;;;;;;;0.20;0.20;;;;;;;;;;5125898;28;20047;-51
2023/08/09 04:53:22;;;;;;;0.10;0.10;;;;;;;;;;5125925;28;20070;-52
2023/08/09 04:55:48;;;;;;;0.20;0.20;;;;;;;;;;5126178;28;20070;-51
2023/08/09 04:58:13;;;;;;;0.20;0.20;;;;;;;;;;5126061;28;20307;-52
2023/08/09 05:00:39;;;;;;;0.10;0.10;;;;;;;;;;5125168;28;20047;-51
2023/08/09 05:03:05;;;;;;;0.20;0.20;;;;;;;;;;5126295;28;20411;-51
2023/08/09 05:05:30;;;;;;;0.20;0.20;;;;;;;;;;5124483;28;20218;-51
2023/08/09 05:07:56;;;;;;;0.43;0.20;;;;;;;;;;5125566;28;20058;-49
2023/08/09 05:10:22;;;;;;;0.10;0.10;;;;;;;;;;5125506;28;20112;-52
2023/08/09 05:12:47;;;;;;;0.20;0.20;;;;;;;;;;5124650;28;20166;-52
2023/08/09 05:15:13;;;;;;;0.20;0.20;;;;;;;;;;5134167;27;20247;-51
2023/08/09 05:17:38;;;;;;;0.20;0.20;;;;;;;;;;5129369;27;20043;-52
2023/08/09 05:20:04;;;;;;;0.20;0.20;;;;;;;;;;5123645;28;20354;-51
2023/08/09 05:22:30;;;;;;;0.20;0.20;;;;;;;;;;5123849;27;20487;-52
2023/08/09 05:24:55;;;;;;;0.10;0.10;;;;;;;;;;5124974;28;20290;-51
2023/08/09 05:27:21;;;;;;;0.20;0.20;;;;;;;;;;5118612;27;20096;-51
2023/08/09 05:29:46;;;;;;;0.20;0.20;;;;;;;;;;5123560;28;20484;-51
2023/08/09 05:32:12;;;;;;;0.20;0.20;;;;;;;;;;5122239;27;20047;-50
2023/08/09 05:34:37;;;;;;;0.20;0.20;;;;;;;;;;5122472;28;20185;-54
2023/08/09 05:37:03;;;;;;;0.20;0.20;;;;;;;;;;5113307;28;20092;-54
2023/08/09 05:39:30;;;;;;;0.10;0.10;;;;;;;;;;5113944;27;20074;-52
2023/08/09 05:41:56;;;;;;;0.20;0.20;;;;;;;;;;5112498;27;20378;-51
2023/08/09 05:44:21;;;;;;;0.20;0.20;;;;;;;;;;5115783;27;20551;-52
2023/08/09 05:46:47;;;;;;;0.20;0.20;;;;;;;;;;5119221;27;20678;-52
2023/08/09 05:49:13;;;;;;;0.20;0.20;;;;;;;;;;5119032;28;20057;-50
2023/08/09 05:51:38;;;;;;;0.20;0.20;;;;;;;;;;5114120;27;20306;-50
2023/08/09 05:54:04;;;;;;;0.10;0.10;;;;;;;;;;5119855;28;20078;-52
2023/08/09 05:56:29;;;;;;;0.20;0.20;;;;;;;;;;5123540;27;20455;-52
2023/08/09 05:58:55;;;;;;;0.20;0.20;;;;;;;;;;5115042;27;20043;-51
2023/08/09 06:01:21;;;;;;;0.10;0.10;;;;;;;;;;5115975;27;20129;-48
2023/08/09 06:03:47;;;;;;;0.10;0.10;;;;;;;;;;5115538;27;20654;-52
2023/08/09 06:06:12;;;;;;;0.52;0.50;;;;;;;;;;5113410;27;20093;-54
2023/08/09 06:08:38;;;;;;;0.20;0.20;;;;;;;;;;5119128;27;20063;-56
2023/08/09 06:11:04;;;;;;;0.20;0.20;;;;;;;;;;5118145;27;20124;-55
2023/08/09 06:13:29;;;;;;;0.10;0.10;;;;;;;;;;5127728;27;20555;-51
2023/08/09 06:15:55;;;;;;;0.20;0.20;;;;;;;;;;5116904;27;20442;-48
2023/08/09 06:18:21;;;;;;;0.20;0.20;;;;;;;;;;5115571;27;20391;-49
2023/08/09 06:20:48;;;;;;;0.20;0.20;;;;;;;;;;5121871;27;20130;-51
2023/08/09 06:23:14;;;;;;;0.15;0.15;;;;;;;;;;5114187;28;20119;-50
2023/08/09 06:25:40;;;;;;;0.20;0.20;;;;;;;;;;5114640;28;20043;-51
2023/08/09 06:28:06;;;;;;;0.20;0.20;;;;;;;;;;5121046;27;20139;-50
2023/08/09 06:30:32;;;;;;;0.20;0.20;;;;;;;;;;5114957;27;20437;-49
2023/08/09 06:32:57;;;;;;;0.20;0.20;;;;;;;;;;5115972;27;20126;-50
2023/08/09 06:35:23;;;;;;;0.20;0.20;;;;;;;;;;5117193;27;20051;-51
2023/08/09 06:37:49;;;;;;;0.20;0.20;;;;;;;;;;5115751;27;20075;-51
2023/08/09 06:40:21;;;;;;;0.20;0.20;;;;;;;;;;5119716;27;20070;-49
2023/08/09 06:42:46;;;;;;;0.30;0.30;;;;;;;;;;5114033;27;20057;-53
2023/08/09 06:45:12;;;;;;;0.20;0.20;;;;;;;;;;5118831;27;20156;-53
2023/08/09 06:47:38;;;;;;;0.20;0.20;;;;;;;;;;5116302;27;20043;-50
2023/08/09 06:50:06;;;;;;;0.10;0.10;;;;;;;;;;5104184;27;20089;-49
2023/08/09 06:52:33;;;;;;;0.10;0.10;;;;;;;;;;5098133;27;20047;-50
2023/08/09 06:55:00;;;;;;;0.10;0.10;;;;;;;;;;5093570;27;20050;-51
2023/08/09 06:57:26;;;;;;;0.20;0.20;;;;;;;;;;5097185;27;20044;-52
2023/08/09 06:59:52;;;;;;;0.20;0.20;;;;;;;;;;5103843;28;20043;-46
2023/08/09 07:02:18;;;;;;;0.20;0.20;;;;;;;;;;5096846;27;20055;-50
2023/08/09 07:04:43;;;;;;;0.20;0.20;;;;;;;;;;5098472;27;20637;-49
2023/08/09 07:07:09;;;;;;;0.20;0.20;;;;;;;;;;5098864;27;20063;-48
2023/08/09 07:09:35;;;;;;;0.17;0.17;;;;;;;;;;5103889;27;20039;-45
2023/08/09 07:12:00;;;;;;;0.20;0.20;;;;;;;;;;5107821;27;20039;-47
2023/08/09 07:14:26;;;;;;;0.20;0.20;;;;;;;;;;5108594;27;20053;-52
2023/08/09 07:16:51;;;;;;;0.20;0.20;;;;;;;;;;5112317;27;20083;-49
2023/08/09 07:19:17;;;;;;;0.20;0.20;;;;;;;;;;5112159;27;20097;-46
2023/08/09 07:21:43;;;;;;;0.20;0.20;;;;;;;;;;5111493;27;20111;-49
2023/08/09 07:24:09;;;;;;;0.20;0.20;;;;;;;;;;5109127;27;20058;-50
2023/08/09 07:26:35;;;;;;;0.20;0.20;;;;;;;;;;5107850;27;20495;-52
2023/08/09 07:29:00;;;;;;;0.13;0.13;;;;;;;;;;5120334;27;20396;-52
2023/08/09 07:31:26;;;;;;;0.20;0.20;;;;;;;;;;5117225;27;20440;-52
2023/08/09 07:33:52;;;;;;;0.10;0.10;;;;;;;;;;5112852;27;20047;-50
2023/08/09 07:36:18;;;;;;;0.20;0.20;;;;;;;;;;5106648;27;20051;-50
2023/08/09 07:38:43;;;;;;;0.20;0.20;;;;;;;;;;5112386;27;20047;-48
2023/08/09 07:41:09;;;;;;;0.10;0.10;;;;;;;;;;5111794;27;20047;-46
2023/08/09 07:43:35;;;;;;;0.20;0.20;;;;;;;;;;5110991;27;20039;-51
2023/08/09 07:46:04;;;;;;;0.20;0.20;;;;;;;;;;5114088;27;20495;-46
2023/08/09 07:48:30;;;;;;;0.20;0.20;;;;;;;;;;5103655;27;20180;-48
2023/08/09 07:50:55;;;;;;;0.20;0.20;;;;;;;;;;5103528;27;20080;-47
2023/08/09 07:53:21;;;;;;;0.10;0.10;;;;;;;;;;5117315;27;20134;-47
2023/08/09 07:55:47;;;;;;;0.20;0.20;;;;;;;;;;5100188;27;20078;-48
2023/08/09 07:58:12;;;;;;;0.20;0.20;;;;;;;;;;5110324;27;20043;-49
2023/08/09 08:00:38;;;;;;;0.20;0.20;;;;;;;;;;5106658;27;20058;-47
2023/08/09 08:03:15;;;;;;;0.57;0.38;;;;;;;;;;5110563;27;20426;-46
2023/08/09 08:05:41;;;;;;;0.20;0.20;;;;;;;;;;5101433;27;21650;-48
2023/08/09 08:08:07;;;;;;;0.10;0.10;;;;;;;;;;5096366;27;20051;-50
2023/08/09 08:10:33;;;;;;;0.10;0.10;;;;;;;;;;5104058;28;20135;-47
2023/08/09 08:12:58;;;;;;;0.13;0.13;;;;;;;;;;5105019;27;20114;-49
2023/08/09 08:15:24;;;;;;;0.20;0.20;;;;;;;;;;5110723;27;20058;-51
2023/08/09 08:17:52;;;;;;;0.20;0.20;;;;;;;;;;5109603;27;20059;-52
2023/08/09 08:20:19;;;;;;;0.10;0.10;;;;;;;;;;5101789;27;20074;-52
2023/08/09 08:22:45;;;;;;;0.10;0.10;;;;;;;;;;5104020;27;20548;-47
2023/08/09 08:25:12;;;;;;;0.20;0.20;;;;;;;;;;5114658;27;20775;-50
2023/08/09 08:27:37;;;;;;;0.10;0.10;;;;;;;;;;5119409;28;20047;-52
2023/08/09 08:30:04;;;;;;;0.10;0.10;;;;;;;;;;5115463;28;20645;-47
2023/08/09 08:32:30;;;;;;;0.20;0.20;;;;;;;;;;5116069;28;20043;-49
2023/08/09 08:34:56;;;;;;;0.15;0.15;;;;;;;;;;5106111;27;20043;-48
2023/08/09 08:37:22;;;;;;;0.20;0.20;;;;;;;;;;5093817;27;20047;-47
2023/08/09 08:39:48;;;;;;;0.20;0.20;;;;;;;;;;5104963;27;20595;-46
2023/08/09 08:42:14;;;;;;;0.20;0.20;;;;;;;;;;5103867;27;20039;-47
2023/08/09 08:44:39;;;;;;;0.22;0.22;;;;;;;;;;5106055;27;20055;-52
2023/08/09 08:47:05;;;;;;;0.20;0.20;;;;;;;;;;5111061;27;20077;-49
2023/08/09 08:49:32;;;;;;;0.20;0.20;;;;;;;;;;5107005;27;20057;-50
2023/08/09 08:51:58;;;;;;;0.20;0.20;;;;;;;;;;5109771;27;20047;-50
2023/08/09 08:54:24;;;;;;;0.10;0.10;;;;;;;;;;5115568;27;20040;-46
2023/08/09 08:56:49;;;;;;;0.15;0.15;;;;;;;;;;5114031;27;20051;-53
2023/08/09 08:59:15;;;;;;;0.32;0.30;;;;;;;;;;5113492;27;20506;-51
2023/08/09 09:01:42;;;;;;;0.20;0.20;;;;;;;;;;5115110;27;20573;-50
2023/08/09 09:04:08;;;;;;;0.20;0.20;;;;;;;;;;5118318;27;20039;-52
2023/08/09 09:06:34;;;;;;;0.10;0.10;;;;;;;;;;5110782;27;20333;-48
2023/08/09 09:08:59;;;;;;;0.20;0.20;;;;;;;;;;5112171;27;20477;-51
2023/08/09 09:11:25;;;;;;;0.10;0.10;;;;;;;;;;5116421;28;20407;-52
2023/08/09 09:13:51;;;;;;;0.10;0.10;;;;;;;;;;5112790;28;20528;-52
2023/08/09 09:16:17;;;;;;;0.15;0.15;;;;;;;;;;5113514;28;20415;-47
2023/08/09 09:18:46;;;;;;;0.20;0.20;;;;;;;;;;5115856;27;20047;-47
2023/08/09 09:21:13;;;;;;;0.10;0.10;;;;;;;;;;5118799;28;20104;-50
2023/08/09 09:23:39;;;;;;;0.20;0.20;;;;;;;;;;5116196;27;20046;-48
2023/08/09 09:26:14;;;;;;;0.20;0.20;;;;;;;;;;5117786;28;20516;-50
2023/08/09 09:28:41;;;;;;;0.20;0.20;;;;;;;;;;5118647;27;20560;-51
2023/08/09 09:31:10;;;;;;;0.10;0.10;;;;;;;;;;5114853;27;20047;-50
2023/08/09 09:33:35;;;;;;;0.20;0.20;;;;;;;;;;5121392;28;20396;-52
2023/08/09 09:36:02;;;;;;;0.20;0.20;;;;;;;;;;5114186;27;20138;-54
2023/08/09 09:38:28;;;;;;;0.10;0.10;;;;;;;;;;5104107;27;20092;-51
2023/08/09 09:40:54;;;;;;;0.10;0.10;;;;;;;;;;5100999;27;20104;-52
2023/08/09 09:43:19;;;;;;;0.10;0.10;;;;;;;;;;5103149;27;20489;-50
2023/08/09 09:45:45;;;;;;;0.20;0.20;;;;;;;;;;5104826;27;20047;-51
2023/08/09 09:48:16;;;;;;;0.20;0.20;;;;;;;;;;5103218;27;20051;-59
2023/08/09 09:50:43;;;;;;;0.20;0.20;;;;;;;;;;5113833;27;20073;-55
2023/08/09 09:53:10;;;;;;;0.20;0.20;;;;;;;;;;5104953;27;20078;-56
2023/08/09 09:55:36;;;;;;;0.20;0.20;;;;;;;;;;5110564;28;20073;-56
2023/08/09 09:58:01;;;;;;;0.13;0.13;;;;;;;;;;5111365;27;20560;-56
2023/08/09 10:00:27;;;;;;;0.20;0.20;;;;;;;;;;5110664;28;20035;-57
2023/08/09 10:02:54;;;;;;;0.20;0.20;;;;;;;;;;5108047;27;20074;-55
2023/08/09 10:05:21;;;;;;;0.13;0.13;;;;;;;;;;5111303;27;20104;-55
2023/08/09 10:07:48;;;;;;;0.10;0.10;;;;;;;;;;5092771;27;20532;-56
2023/08/09 10:10:19;;;;;;;0.20;0.20;;;;;;;;;;5119116;27;20058;-56
2023/08/09 10:12:47;;;;;;;0.20;0.20;;;;;;;;;;5108918;27;20047;-55
2023/08/09 10:15:12;;;;;;;;;;;;;;;;;;5116077;27;20443;-56
2023/08/09 10:17:38;;;;;;;0.10;0.10;;;;;;;;;;5116774;27;20466;-56
2023/08/09 10:20:05;;;;;;;0.10;0.10;;;;;;;;;;5116292;27;20047;-55
2023/08/09 10:22:31;;;;;;;0.10;0.10;;;;;;;;;;5115489;28;20047;-56
2023/08/09 10:25:07;;;;;;;0.15;0.15;;;;;;;;;;5112971;27;20055;-56
2023/08/09 10:27:53;;;;;;;0.10;0.10;;;;;;;;;;5104973;27;20039;-56
2023/08/09 10:30:24;;;;;;;0.20;0.20;;;;;;;;;;5097317;28;20163;-53
2023/08/09 10:32:52;;;;;;;0.20;0.20;;;;;;;;;;5086452;28;20043;-55
2023/08/09 10:35:19;;;;;;;0.20;0.20;;;;;;;;;;5107652;27;20138;-55
2023/08/09 10:37:44;;;;;;;0.10;0.10;;;;;;;;;;5106863;27;20047;-56
2023/08/09 10:40:11;;;;;;;0.10;0.10;;;;;;;;;;5097606;27;21435;-55
2023/08/09 10:42:37;;;;;;;0.10;0.10;;;;;;;;;;5093523;27;20046;-55
2023/08/09 10:45:03;;;;;;;0.10;0.10;;;;;;;;;;5101848;28;20045;-56
2023/08/09 10:47:30;;;;;;;0.10;0.10;;;;;;;;;;5103980;27;20050;-56
2023/08/09 10:50:00;;;;;;;0.17;0.17;;;;;;;;;;5103719;27;20040;-56
2023/08/09 10:52:34;;;;;;;0.20;0.20;;;;;;;;;;5099834;27;20047;-55
2023/08/09 10:55:24;;;;;;;0.20;0.20;;;;;;;;;;5108322;27;20047;-53
2023/08/09 10:57:50;;;;;;;0.10;0.10;;;;;;;;;;5109197;27;20051;-55
2023/08/09 11:00:16;;;;;;;0.13;0.13;;;;;;;;;;5113123;27;20070;-55
2023/08/09 11:02:45;;;;;;;0.10;0.10;;;;;;;;;;5104401;27;20054;-56
2023/08/09 11:05:11;;;;;;;0.10;0.10;;;;;;;;;;5105404;27;20096;-55
2023/08/09 11:07:41;;;;;;;0.10;0.10;;;;;;;;;;5109600;27;20075;-56
2023/08/09 11:10:08;;;;;;;0.10;0.10;;;;;;;;;;5110771;27;20054;-56
2023/08/09 11:12:34;;;;;;;0.10;0.10;;;;;;;;;;5113657;27;20443;-56
2023/08/09 11:14:59;;;;;;;0.10;0.10;;;;;;;;;;5116943;27;21798;-57
2023/08/09 11:17:25;;;;;;;0.10;0.10;;;;;;;;;;5117234;28;20044;-56
2023/08/09 11:19:50;;;;;;;0.10;0.10;;;;;;;;;;5113020;27;20050;-55
2023/08/09 11:22:16;;;;;;;0.13;0.13;;;;;;;;;;5107023;27;20186;-55
2023/08/09 11:24:41;;;;;;;0.10;0.10;;;;;;;;;;5111671;27;20051;-56
2023/08/09 11:27:07;;;;;;;0.10;0.10;;;;;;;;;;5103967;27;20380;-56
2023/08/09 11:29:33;;;;;;;0.20;0.20;;;;;;;;;;5106966;27;20068;-57
2023/08/09 11:31:58;;;;;;;0.20;0.20;;;;;;;;;;5088480;27;20051;-57
2023/08/09 11:34:25;;;;;;;0.10;0.10;;;;;;;;;;5099148;27;20046;-50
2023/08/09 11:36:52;;;;;;;0.10;0.10;;;;;;;;;;5101900;27;20128;-51
2023/08/09 11:39:19;;;;;;;0.10;0.10;;;;;;;;;;5108371;27;20258;-54
2023/08/09 11:44:30;;;;;;;0.10;0.10;;;;;;;;;;5151938;27;20205;-45
2023/08/09 11:46:57;;;;;;;0.10;0.10;;;;;;;;;;5138239;27;20095;-54
2023/08/09 11:49:26;;;;;;;0.10;0.10;;;;;;;;;;5140502;27;20050;-53
2023/08/09 11:51:52;;;;;;;0.20;0.20;;;;;;;;;;5146138;27;20505;-54
2023/08/09 11:54:17;;;;;;;0.10;0.10;;;;;;;;;;5145137;27;20078;-53
2023/08/09 11:56:43;;;;;;;0.10;0.10;;;;;;;;;;5145331;27;20463;-50
2023/08/09 11:59:09;;;;;;;0.20;0.20;;;;;;;;;;5139598;27;20146;-54
2023/08/09 12:01:37;;;;;;;0.10;0.10;;;;;;;;;;5132050;27;20043;-47
2023/08/09 12:04:07;;;;;;;0.20;0.20;;;;;;;;;;5126035;27;20047;-49
2023/08/09 12:06:34;;;;;;;0.20;0.20;;;;;;;;;;5133803;27;20045;-48
2023/08/09 12:09:00;;;;;;;0.20;0.20;;;;;;;;;;5129813;27;20050;-55
2023/08/09 12:11:26;;;;;;;0.20;0.20;;;;;;;;;;5130848;27;20039;-52
2023/08/09 12:13:51;;;;;;;0.10;0.10;;;;;;;;;;5136337;27;20100;-52
2023/08/09 12:16:17;;;;;;;0.15;0.15;;;;;;;;;;5134154;27;20122;-60
2023/08/09 12:18:42;;;;;;;0.10;0.10;;;;;;;;;;5134200;27;20043;-50
2023/08/09 12:21:08;;;;;;;0.10;0.10;;;;;;;;;;5125386;27;20043;-50
2023/08/09 12:23:35;;;;;;;0.20;0.20;;;;;;;;;;5125955;27;20062;-50
2023/08/09 12:26:01;;;;;;;0.20;0.20;;;;;;;;;;5130062;27;20062;-51
2023/08/09 12:28:26;;;;;;;0.10;0.10;;;;;;;;;;5116510;27;20051;-51
2023/08/09 12:30:52;;;;;;;0.10;0.10;;;;;;;;;;5119402;27;20054;-49
2023/08/09 12:33:17;;;;;;;0.15;0.15;;;;;;;;;;5129235;27;20057;-50
2023/08/09 12:35:43;;;;;;;0.20;0.20;;;;;;;;;;5118330;27;20066;-50
2023/08/09 12:38:09;;;;;;;0.20;0.20;;;;;;;;;;5126610;27;20054;-51
2023/08/09 12:40:35;;;;;;;0.20;0.20;;;;;;;;;;5136761;27;20039;-51
2023/08/09 12:43:00;;;;;;;0.20;0.20;;;;;;;;;;5129555;27;20047;-51
2023/08/09 12:45:26;;;;;;;0.10;0.10;;;;;;;;;;5131369;27;20587;-49
2023/08/09 12:47:51;;;;;;;0.20;0.20;;;;;;;;;;5133591;27;20131;-51
2023/08/09 12:50:17;;;;;;;0.10;0.10;;;;;;;;;;5127309;27;20047;-48
2023/08/09 12:52:43;;;;;;;0.10;0.10;;;;;;;;;;5134411;27;20130;-52
2023/08/09 12:55:12;;;;;;;0.20;0.20;;;;;;;;;;5131197;27;20043;-57
2023/08/09 12:57:38;;;;;;;0.30;0.30;;;;;;;;;;5122594;28;20046;-57
2023/08/09 13:00:07;;;;;;;0.10;0.10;;;;;;;;;;5126500;27;20072;-51
2023/08/09 13:02:32;;;;;;;0.20;0.20;;;;;;;;;;5134643;27;20046;-51
2023/08/09 13:04:59;;;;;;;0.10;0.10;;;;;;;;;;5124160;27;20043;-52
2023/08/09 13:07:29;;;;;;;0.10;0.10;;;;;;;;;;5122431;27;20078;-51
2023/08/09 13:09:55;;;;;;;0.10;0.10;;;;;;;;;;5121193;27;20403;-53
2023/08/09 13:12:24;;;;;;;0.10;0.10;;;;;;;;;;5124415;28;20087;-47
2023/08/09 13:14:51;;;;;;;0.10;0.10;;;;;;;;;;5123800;28;20114;-49
2023/08/09 13:17:16;;;;;;;0.17;0.17;;;;;;;;;;5136118;27;20078;-53
2023/08/09 13:19:42;;;;;;;0.10;0.10;;;;;;;;;;5126353;28;20141;-50
2023/08/09 13:22:07;;;;;;;0.20;0.20;;;;;;;;;;5135754;27;20055;-50
2023/08/09 13:24:33;;;;;;;0.65;0.30;;;;;;;;;;5127797;28;20051;-51
2023/08/09 13:26:59;;;;;;;0.10;0.10;;;;;;;;;;5127664;28;20082;-48
2023/08/09 13:29:24;;;;;;;0.10;0.10;;;;;;;;;;5126593;28;20055;-48
2023/08/09 13:31:50;;;;;;;0.10;0.10;;;;;;;;;;5144049;27;20047;-51
2023/08/09 13:34:15;;;;;;;0.10;0.10;;;;;;;;;;5138726;27;20043;-47
2023/08/09 13:36:41;;;;;;;0.10;0.10;;;;;;;;;;5127526;28;20152;-50
2023/08/09 13:39:07;;;;;;;0.10;0.10;;;;;;;;;;5125335;28;20057;-50
2023/08/09 13:41:33;;;;;;;0.10;0.10;;;;;;;;;;5128272;27;20403;-50
2023/08/09 13:43:59;;;;;;;0.10;0.10;;;;;;;;;;5126582;28;20165;-50
2023/08/09 13:46:24;;;;;;;0.17;0.17;;;;;;;;;;5128794;28;20047;-57
2023/08/09 13:48:50;;;;;;;0.13;0.13;;;;;;;;;;5125656;27;20070;-48
2023/08/09 13:51:16;;;;;;;0.10;0.10;;;;;;;;;;5129690;27;20047;-49
2023/08/09 13:53:41;;;;;;;0.10;0.10;;;;;;;;;;5123564;28;20046;-46
2023/08/09 13:56:07;;;;;;;0.10;0.10;;;;;;;;;;5116609;28;20162;-51
2023/08/09 13:58:32;;;;;;;0.10;0.10;;;;;;;;;;5126940;27;20047;-48
2023/08/09 14:00:58;;;;;;;0.10;0.10;;;;;;;;;;5136516;27;20043;-48
2023/08/09 14:03:24;;;;;;;0.10;0.10;;;;;;;;;;5135351;27;20055;-50
2023/08/09 14:05:51;;;;;;;0.10;0.10;;;;;;;;;;5126122;27;20186;-49
2023/08/09 14:08:17;;;;;;;0.10;0.10;;;;;;;;;;5126923;28;20168;-49
2023/08/09 14:10:43;;;;;;;0.10;0.10;;;;;;;;;;5133929;27;20046;-51
2023/08/09 14:13:09;;;;;;;0.10;0.10;;;;;;;;;;5146504;27;20619;-46
2023/08/09 14:15:34;;;;;;;0.10;0.10;;;;;;;;;;5148184;27;20047;-51
2023/08/09 14:18:00;;;;;;;0.10;0.10;;;;;;;;;;5144501;27;20095;-50
2023/08/09 14:20:26;;;;;;;0.10;0.10;;;;;;;;;;5131981;27;20047;-50
2023/08/09 14:22:52;;;;;;;0.10;0.10;;;;;;;;;;5147198;27;20168;-48
2023/08/09 14:25:19;;;;;;;0.17;0.17;;;;;;;;;;5148506;27;20054;-47
2023/08/09 14:27:45;;;;;;;0.10;0.10;;;;;;;;;;5147465;27;20512;-47
2023/08/09 14:30:11;;;;;;;0.10;0.10;;;;;;;;;;5126760;27;20535;-47
2023/08/09 14:32:36;;;;;;;0.10;0.10;;;;;;;;;;5125868;28;20053;-51
2023/08/09 14:35:02;;;;;;;0.25;0.25;;;;;;;;;;5110692;28;20120;-50
2023/08/09 14:37:28;;;;;;;0.10;0.10;;;;;;;;;;5122723;28;20363;-49
2023/08/09 14:39:53;;;;;;;0.10;0.10;;;;;;;;;;5124067;27;20123;-47